Time;durP1;ratioP1;P1;durP2;ratioP2;P2;SDS_P1;SDS_P2;PMS_P1;PMS_P2;Temp;Humidity;BMP_temperature;BMP_pressure;BME280_temperature;BME280_humidity;BME280_pressure;Samples;Min_cycle;Max_cycle;Signal;HPM_P1;HPM_P2
2021/09/13 00:01:10;;;;;;;;;;;13.10;99.90;;;;;;8295584;28;19916;-63
2021/09/13 00:05:11;;;;;;;;;;;12.70;99.90;;;;;;8277665;28;19906;-63
2021/09/13 00:09:11;;;;;;;;;;;12.70;99.90;;;;;;8295538;28;19910;-63
2021/09/13 00:13:12;;;;;;;;;;;12.60;99.90;;;;;;8295374;28;20289;-63
2021/09/13 00:17:13;;;;;;;;;;;12.70;99.90;;;;;;8294865;28;20000;-62
2021/09/13 00:21:13;;;;;;;;;;;12.50;99.90;;;;;;8294699;28;19984;-63
2021/09/13 00:25:14;;;;;;;;;;;12.70;99.90;;;;;;8294449;28;19912;-63
2021/09/13 00:29:14;;;;;;;;;;;;;;;;;;8294896;28;20576;-63
2021/09/13 00:33:15;;;;;;;;;;;12.50;99.90;;;;;;8294699;28;19913;-63
2021/09/13 00:37:15;;;;;;;;;;;12.30;99.90;;;;;;8294552;28;19906;-63
2021/09/13 00:41:16;;;;;;;;;;;12.30;99.90;;;;;;8294442;28;20289;-63
2021/09/13 00:45:17;;;;;;;;;;;12.40;99.90;;;;;;8294166;28;19992;-63
2021/09/13 00:49:17;;;;;;;;;;;12.10;99.90;;;;;;8294371;28;19905;-63
2021/09/13 00:53:17;;;;;;;;;;;12.00;99.90;;;;;;8293991;28;20266;-62
2021/09/13 00:57:18;;;;;;;;;;;12.10;99.90;;;;;;8294072;28;20258;-63
2021/09/13 01:01:19;;;;;;;;;;;12.00;99.90;;;;;;8292906;28;19919;-63
2021/09/13 01:05:20;;;;;;;;;;;11.80;99.90;;;;;;8294058;28;19928;-63
2021/09/13 01:09:22;;;;;;;;;;;11.70;99.90;;;;;;8293201;28;19913;-63
2021/09/13 01:13:22;;;;;;;;;;;11.80;99.90;;;;;;8293967;28;20294;-63
2021/09/13 01:17:23;;;;;;;;;;;11.90;99.90;;;;;;8276009;28;19905;-63
2021/09/13 01:21:25;;;;;;;;;;;12.10;99.90;;;;;;8293035;28;20472;-63
2021/09/13 01:25:26;;;;;;;;;;;11.90;99.90;;;;;;8292979;28;19906;-63
2021/09/13 01:29:26;;;;;;;;;;;11.90;99.90;;;;;;8275917;28;19983;-63
2021/09/13 01:33:27;;;;;;;;;;;12.00;99.90;;;;;;8293558;28;20337;-63
2021/09/13 01:37:27;;;;;;;;;;;11.80;99.90;;;;;;8293336;28;20358;-63
2021/09/13 01:41:28;;;;;;;;;;;11.90;99.90;;;;;;8293118;28;19914;-63
2021/09/13 01:45:28;;;;;;;;;;;11.80;99.90;;;;;;8293144;28;19957;-63
2021/09/13 01:49:29;;;;;;;;;;;11.80;99.90;;;;;;8293365;28;20280;-63
2021/09/13 01:53:29;;;;;;;;;;;11.60;99.90;;;;;;8293564;28;19959;-63
2021/09/13 01:57:30;;;;;;;;;;;11.60;99.90;;;;;;8293096;28;19909;-62
2021/09/13 02:01:30;;;;;;;;;;;11.60;99.90;;;;;;8293042;28;19916;-62
2021/09/13 02:05:31;;;;;;;;;;;11.80;99.90;;;;;;8275188;28;20008;-62
2021/09/13 02:09:31;;;;;;;;;;;11.90;99.90;;;;;;8275358;28;19905;-63
2021/09/13 02:13:32;;;;;;;;;;;11.60;99.90;;;;;;8296068;28;19956;-63
2021/09/13 02:17:32;;;;;;;;;;;11.50;99.90;;;;;;8281256;28;19905;-63
2021/09/13 02:21:33;;;;;;;;;;;11.40;99.90;;;;;;8280612;28;19916;-63
2021/09/13 02:25:33;;;;;;;;;;;11.30;99.90;;;;;;8298168;28;19963;-63
2021/09/13 02:29:34;;;;;;;;;;;11.30;99.90;;;;;;8299271;28;19949;-63
2021/09/13 02:33:34;;;;;;;;;;;11.50;99.90;;;;;;8298866;28;19913;-63
2021/09/13 02:37:36;;;;;;;;;;;11.50;99.90;;;;;;8297313;28;20000;-63
2021/09/13 02:41:36;;;;;;;;;;;11.40;99.90;;;;;;8297540;28;20407;-63
2021/09/13 02:45:37;;;;;;;;;;;11.50;99.90;;;;;;8297894;28;20436;-62
2021/09/13 02:49:37;;;;;;;;;;;11.50;99.90;;;;;;8298024;28;19992;-62
2021/09/13 02:53:38;;;;;;;;;;;11.30;99.90;;;;;;8296651;28;19905;-63
2021/09/13 02:57:38;;;;;;;;;;;11.20;99.90;;;;;;8296765;28;19988;-63
2021/09/13 03:01:39;;;;;;;;;;;11.10;99.90;;;;;;8297214;28;19910;-63
2021/09/13 03:05:39;;;;;;;;;;;11.10;99.90;;;;;;8297245;28;19905;-63
2021/09/13 03:09:40;;;;;;;;;;;11.20;99.90;;;;;;8297369;28;19933;-62
2021/09/13 03:13:41;;;;;;;;;;;11.60;99.90;;;;;;8279669;28;19956;-63
2021/09/13 03:17:43;;;;;;;;;;;11.40;99.90;;;;;;8297034;28;20271;-62
2021/09/13 03:21:46;;;;;;;;;;;11.20;99.90;;;;;;8296516;28;19952;-63
2021/09/13 03:25:47;;;;;;;;;;;11.20;99.90;;;;;;8295758;28;19910;-62
2021/09/13 03:29:47;;;;;;;;;;;11.10;99.90;;;;;;8296694;28;19905;-62
2021/09/13 03:33:48;;;;;;;;;;;10.90;99.90;;;;;;8370331;23;19926;-63
2021/09/13 03:37:49;;;;;;;;;;;11.00;99.90;;;;;;8262316;28;20400;-63
2021/09/13 03:41:49;;;;;;;;;;;11.00;99.90;;;;;;8263795;28;19920;-63
2021/09/13 03:45:49;;;;;;;;;;;11.10;99.90;;;;;;8263287;28;20358;-63
2021/09/13 03:49:50;;;;;;;;;;;11.20;99.90;;;;;;8262283;28;19996;-63
2021/09/13 03:53:50;;;;;;;;;;;11.00;99.90;;;;;;8262837;28;19913;-63
2021/09/13 03:57:51;;;;;;;;;;;11.20;99.90;;;;;;8261792;28;20016;-63
2021/09/13 04:01:51;;;;;;;;;;;11.00;99.90;;;;;;8261179;28;20013;-63
2021/09/13 04:05:55;;;;;;;;;;;10.70;99.90;;;;;;8262852;28;20016;-63
2021/09/13 04:13:56;;;;;;;;;;;10.60;99.90;;;;;;8262859;28;20297;-63
2021/09/13 04:17:56;;;;;;;;;;;10.60;99.90;;;;;;8260659;28;19906;-63
2021/09/13 04:21:57;;;;;;;;;;;10.60;99.90;;;;;;8262395;28;19913;-62
2021/09/13 04:25:57;;;;;;;;;;;10.60;99.90;;;;;;8260442;28;19910;-63
2021/09/13 04:29:58;;;;;;;;;;;10.50;99.90;;;;;;8260886;28;19916;-63
2021/09/13 04:33:59;;;;;;;;;;;10.40;99.90;;;;;;8261869;28;19963;-63
2021/09/13 04:37:59;;;;;;;;;;;10.30;99.90;;;;;;8260454;28;19910;-63
2021/09/13 04:42:00;;;;;;;;;;;10.50;99.90;;;;;;8261104;28;19967;-64
2021/09/13 04:46:00;;;;;;;;;;;10.60;99.90;;;;;;8254248;28;20370;-63
2021/09/13 04:50:01;;;;;;;;;;;10.50;99.90;;;;;;8273662;28;19909;-63
2021/09/13 04:54:01;;;;;;;;;;;10.50;99.90;;;;;;8259649;28;19910;-63
2021/09/13 04:58:02;;;;;;;;;;;10.40;99.90;;;;;;8258897;28;19952;-63
2021/09/13 05:02:03;;;;;;;;;;;10.50;99.90;;;;;;8259532;28;19913;-63
2021/09/13 05:06:04;;;;;;;;;;;10.50;99.90;;;;;;8259208;28;19959;-63
2021/09/13 05:10:04;;;;;;;;;;;10.60;99.90;;;;;;8260063;28;19913;-64
2021/09/13 05:14:05;;;;;;;;;;;10.60;99.90;;;;;;8260445;28;19917;-63
2021/09/13 05:18:05;;;;;;;;;;;10.70;99.90;;;;;;8268688;28;19913;-63
2021/09/13 05:22:06;;;;;;;;;;;10.90;99.90;;;;;;8289694;28;19909;-63
2021/09/13 05:26:06;;;;;;;;;;;11.20;99.90;;;;;;8263439;28;19909;-63
2021/09/13 05:30:09;;;;;;;;;;;11.30;99.90;;;;;;8257233;28;19939;-63
2021/09/13 05:34:10;;;;;;;;;;;11.30;99.90;;;;;;8256919;28;19967;-64
2021/09/13 05:38:10;;;;;;;;;;;11.40;99.90;;;;;;8258582;28;19905;-63
2021/09/13 05:42:10;;;;;;;;;;;11.40;99.90;;;;;;8273452;28;19957;-63
2021/09/13 05:46:12;;;;;;;;;;;11.80;99.90;;;;;;8259806;28;19912;-63
2021/09/13 05:50:12;;;;;;;;;;;12.00;99.90;;;;;;8266252;28;19913;-63
2021/09/13 05:54:13;;;;;;;;;;;12.10;99.90;;;;;;8266055;28;19977;-63
2021/09/13 05:58:13;;;;;;;;;;;12.20;99.90;;;;;;8266862;28;20004;-63
2021/09/13 06:02:16;;;;;;;;;;;12.50;99.90;;;;;;8267062;28;20228;-63
2021/09/13 06:06:16;;;;;;;;;;;12.70;99.90;;;;;;8266574;28;20374;-63
2021/09/13 06:10:17;;;;;;;;;;;12.90;99.90;;;;;;8264728;28;19913;-63
2021/09/13 06:14:17;;;;;;;;;;;13.00;99.90;;;;;;8265832;28;20004;-63
2021/09/13 06:18:18;;;;;;;;;;;12.80;99.90;;;;;;8264429;28;19910;-63
2021/09/13 06:22:18;;;;;;;;;;;12.80;99.90;;;;;;8266390;28;19910;-63
2021/09/13 06:26:18;;;;;;;;;;;12.70;99.90;;;;;;8266291;28;19906;-63
2021/09/13 06:30:19;;;;;;;;;;;12.80;99.90;;;;;;8266180;28;19918;-63
2021/09/13 06:34:19;;;;;;;;;;;12.80;99.90;;;;;;8265868;28;19920;-63
2021/09/13 06:38:20;;;;;;;;;;;12.90;99.90;;;;;;8265830;28;19952;-63
2021/09/13 06:42:20;;;;;;;;;;;13.20;99.90;;;;;;8265657;28;19917;-63
2021/09/13 06:46:24;;;;;;;;;;;13.60;99.90;;;;;;8265267;28;19905;-63
2021/09/13 06:50:26;;;;;;;;;;;13.70;99.90;;;;;;8291457;28;19909;-63
2021/09/13 06:54:26;;;;;;;;;;;13.70;99.90;;;;;;8297766;28;19925;-63
2021/09/13 06:58:27;;;;;;;;;;;13.70;99.90;;;;;;8297012;28;19909;-63
2021/09/13 07:02:27;;;;;;;;;;;13.90;99.90;;;;;;8297638;28;19916;-63
2021/09/13 07:06:28;;;;;;;;;;;14.30;99.90;;;;;;8296885;28;19929;-63
2021/09/13 07:10:28;;;;;;;;;;;14.60;99.90;;;;;;8297031;28;19909;-64
2021/09/13 07:14:29;;;;;;;;;;;14.90;99.90;;;;;;8297202;28;19906;-64
2021/09/13 07:18:29;;;;;;;;;;;15.10;99.90;;;;;;8296920;28;19937;-64
2021/09/13 07:22:30;;;;;;;;;;;15.30;99.90;;;;;;8296878;28;19914;-63
2021/09/13 07:26:30;;;;;;;;;;;15.60;99.90;;;;;;8296697;28;19905;-63
2021/09/13 07:30:31;;;;;;;;;;;15.80;99.90;;;;;;8296688;28;20266;-63
2021/09/13 07:34:31;;;;;;;;;;;16.30;99.90;;;;;;8296663;28;19975;-63
2021/09/13 07:38:32;;;;;;;;;;;16.40;99.90;;;;;;8296405;28;20162;-64
2021/09/13 07:42:32;;;;;;;;;;;16.50;99.90;;;;;;8296354;28;20293;-64
2021/09/13 07:46:33;;;;;;;;;;;16.70;99.90;;;;;;8296022;28;19915;-63
2021/09/13 07:50:33;;;;;;;;;;;17.00;99.90;;;;;;8287222;28;20390;-64
2021/09/13 07:54:34;;;;;;;;;;;17.20;99.90;;;;;;8263211;28;20000;-64
2021/09/13 07:58:34;;;;;;;;;;;17.40;99.90;;;;;;8262537;28;20032;-64
2021/09/13 08:02:35;;;;;;;;;;;17.80;99.90;;;;;;8263188;28;20270;-64
2021/09/13 08:06:35;;;;;;;;;;;18.00;99.90;;;;;;8263297;28;20259;-64
2021/09/13 08:10:36;;;;;;;;;;;18.10;99.90;;;;;;8261599;28;19928;-64
2021/09/13 08:14:36;;;;;;;;;;;18.00;99.90;;;;;;8262925;28;20354;-63
2021/09/13 08:18:37;;;;;;;;;;;18.00;99.90;;;;;;8262680;28;20441;-63
2021/09/13 08:22:38;;;;;;;;;;;18.40;99.90;;;;;;8262124;28;20305;-63
2021/09/13 08:26:41;;;;;;;;;;;18.60;99.90;;;;;;8262523;28;19917;-64
2021/09/13 08:30:41;;;;;;;;;;;18.90;99.90;;;;;;8261276;28;19932;-64
2021/09/13 08:34:42;;;;;;;;;;;19.10;99.90;;;;;;8262313;28;19913;-64
2021/09/13 08:38:43;;;;;;;;;;;19.30;99.90;;;;;;8262384;28;20045;-64
2021/09/13 08:42:44;;;;;;;;;;;19.40;99.90;;;;;;8261528;28;19918;-64
2021/09/13 08:46:49;;;;;;;;;;;19.80;99.90;;;;;;8260376;28;19910;-64
2021/09/13 08:54:50;;;;;;;;;;;20.50;99.90;;;;;;8261472;28;19964;-64
2021/09/13 08:58:51;;;;;;;;;;;20.70;99.90;;;;;;8260576;28;19976;-64
2021/09/13 09:02:55;;;;;;;;;;;20.90;99.90;;;;;;8260606;28;20386;-64
2021/09/13 09:07:06;;;;;;;;;;;21.10;99.90;;;;;;8260621;28;19910;-63
2021/09/13 09:11:07;;;;;;;;;;;21.20;99.90;;;;;;8261107;28;19905;-64
2021/09/13 09:15:07;;;;;;;;;;;21.20;99.90;;;;;;8260818;28;19980;-64
2021/09/13 09:19:17;;;;;;;;;;;21.50;99.90;;;;;;8277275;28;20334;-64
2021/09/13 09:23:18;;;;;;;;;;;21.60;99.90;;;;;;8293487;28;19909;-63
2021/09/13 09:27:19;;;;;;;;;;;21.60;99.90;;;;;;8293506;28;19928;-64
2021/09/13 09:31:39;;;;;;;;;;;21.80;99.90;;;;;;8266104;28;19937;-63
2021/09/13 09:35:43;;;;;;;;;;;22.10;99.90;;;;;;8351609;22;20454;-62
2021/09/13 09:39:53;;;;;;;;;;;22.50;99.90;;;;;;8363975;28;20590;-63
2021/09/13 09:43:57;;;;;;;;;;;22.60;99.90;;;;;;8333742;28;19921;-62
2021/09/13 09:48:05;;;;;;;;;;;22.80;99.90;;;;;;8325069;28;19912;-63
2021/09/13 09:52:05;;;;;;;;;;;23.00;99.90;;;;;;8325811;28;19905;-63
2021/09/13 09:56:12;;;;;;;;;;;23.20;99.90;;;;;;8318341;28;19952;-63
2021/09/13 10:00:19;;;;;;;;;;;23.20;99.90;;;;;;8277576;28;20588;-63
2021/09/13 10:04:21;;;;;;;;;;;23.30;99.90;;;;;;8292237;28;19909;-63
2021/09/13 10:08:22;;;;;;;;;;;23.60;99.90;;;;;;8292827;28;19906;-62
2021/09/13 10:12:23;;;;;;;;;;;23.80;99.90;;;;;;8292532;28;19909;-62
2021/09/13 10:16:23;;;;;;;;;;;23.70;99.90;;;;;;8291286;28;20301;-63
2021/09/13 10:20:24;;;;;;;;;;;23.60;99.90;;;;;;8292362;28;20033;-62
2021/09/13 10:24:27;;;;;;;;;;;23.80;99.90;;;;;;8312313;28;19916;-63
2021/09/13 10:28:29;;;;;;;;;;;24.00;99.90;;;;;;8302424;28;19909;-62
2021/09/13 10:32:30;;;;;;;;;;;24.70;99.90;;;;;;8287104;28;20012;-63
2021/09/13 10:36:49;;;;;;;;;;;25.20;99.90;;;;;;8301129;28;20024;-62
2021/09/13 10:40:49;;;;;;;;;;;24.90;99.90;;;;;;8331146;28;20373;-63
2021/09/13 10:45:01;;;;;;;;;;;24.70;99.90;;;;;;8330715;28;19936;-63
2021/09/13 10:49:11;;;;;;;;;;;25.30;99.90;;;;;;8330460;28;19939;-63
2021/09/13 10:53:17;;;;;;;;;;;25.90;99.90;;;;;;8329916;28;19913;-63
2021/09/13 10:57:18;;;;;;;;;;;28.00;99.90;;;;;;8320494;28;19946;-63
2021/09/13 11:01:22;;;;;;;;;;;32.00;99.90;;;;;;8299941;28;20451;-63
2021/09/13 11:05:23;;;;;;;;;;;34.50;90.10;;;;;;8299820;28;19941;-62
2021/09/13 11:09:24;;;;;;;;;;;36.30;68.40;;;;;;8306709;28;19916;-63
2021/09/13 11:13:25;;;;;;;;;;;35.70;60.40;;;;;;8330389;28;19912;-63
2021/09/13 11:17:25;;;;;;;;;;;35.20;59.20;;;;;;8329804;28;20010;-62
2021/09/13 11:21:33;;;;;;;;;;;33.60;63.80;;;;;;8314296;28;20012;-63
2021/09/13 11:25:33;;;;;;;;;;;31.30;71.50;;;;;;8311983;28;20388;-63
2021/09/13 11:29:39;;;;;;;;;;;29.60;80.50;;;;;;8314119;28;19951;-63
2021/09/13 11:33:39;;;;;;;;;;;28.40;84.80;;;;;;8312368;28;19983;-63
2021/09/13 11:37:39;;;;;;;;;;;29.10;87.50;;;;;;8292647;28;19932;-63
2021/09/13 11:41:40;;;;;;;;;;;29.80;81.50;;;;;;8307817;28;19913;-62
2021/09/13 11:45:40;;;;;;;;;;;28.60;88.50;;;;;;8328853;28;19916;-62
2021/09/13 11:49:45;;;;;;;;;;;27.60;92.40;;;;;;8318191;28;19956;-63
2021/09/13 11:54:05;;;;;;;;;;;30.80;83.70;;;;;;8302173;28;19909;-63
2021/09/13 11:58:07;;;;;;;;;;;34.10;71.50;;;;;;8295276;28;19948;-63
2021/09/13 12:02:11;;;;;;;;;;;37.10;59.10;;;;;;8297316;28;19917;-63
2021/09/13 12:06:20;;;;;;;;;;;40.10;49.90;;;;;;8324965;28;19936;-64
2021/09/13 12:10:27;;;;;;;;;;;42.60;44.40;;;;;;8300697;28;19971;-64
2021/09/13 12:14:28;;;;;;;;;;;45.00;39.50;;;;;;8304627;28;19909;-64
2021/09/13 12:18:32;;;;;;;;;;;46.20;34.80;;;;;;8302027;28;20000;-63
2021/09/13 12:22:35;;;;;;;;;;;45.40;34.80;;;;;;8315068;28;19963;-64
2021/09/13 12:26:36;;;;;;;;;;;45.30;35.50;;;;;;8313813;28;19909;-63
2021/09/13 12:30:38;;;;;;;;;;;44.40;34.70;;;;;;8308505;28;20357;-63
2021/09/13 12:34:51;;;;;;;;;;;42.80;36.90;;;;;;8310139;28;19924;-63
2021/09/13 12:38:53;;;;;;;;;;;40.80;38.60;;;;;;8308249;28;19916;-63
2021/09/13 12:42:56;;;;;;;;;;;40.70;38.00;;;;;;8309218;28;19936;-63
2021/09/13 12:46:57;;;;;;;;;;;39.10;40.70;;;;;;8308377;28;19906;-63
2021/09/13 12:50:58;;;;;;;;;;;35.00;46.80;;;;;;8304015;28;19910;-63
2021/09/13 12:55:15;;;;;;;;;;;32.20;52.10;;;;;;8307800;28;19909;-63
2021/09/13 12:59:18;;;;;;;;;;;33.60;49.10;;;;;;8304634;28;19924;-63
2021/09/13 13:03:18;;;;;;;;;;;38.10;44.30;;;;;;8302791;28;20312;-64
2021/09/13 13:07:19;;;;;;;;;;;37.90;41.50;;;;;;8291129;28;19906;-64
2021/09/13 13:11:19;;;;;;;;;;;39.30;40.50;;;;;;8292926;28;20380;-64
2021/09/13 13:15:20;;;;;;;;;;;41.50;38.10;;;;;;8293129;28;20306;-63
2021/09/13 13:19:20;;;;;;;;;;;43.40;36.40;;;;;;8293920;28;19905;-63
2021/09/13 13:23:21;;;;;;;;;;;42.30;36.80;;;;;;8303255;28;19979;-63
2021/09/13 13:27:21;;;;;;;;;;;41.10;37.50;;;;;;8302722;28;19909;-64
2021/09/13 13:31:22;;;;;;;;;;;40.00;38.60;;;;;;8304564;28;19955;-63
2021/09/13 13:35:22;;;;;;;;;;;40.20;37.50;;;;;;8295163;28;19966;-63
2021/09/13 13:39:23;;;;;;;;;;;40.70;37.20;;;;;;8296162;28;19913;-63
2021/09/13 13:43:23;;;;;;;;;;;40.50;37.00;;;;;;8303249;28;19921;-64
2021/09/13 13:47:24;;;;;;;;;;;42.20;36.60;;;;;;8307789;28;19924;-64
2021/09/13 13:51:25;;;;;;;;;;;43.90;34.40;;;;;;8322594;28;19945;-63
2021/09/13 13:55:25;;;;;;;;;;;45.50;32.90;;;;;;8307569;28;19972;-63
2021/09/13 13:59:26;;;;;;;;;;;43.90;32.80;;;;;;8292977;28;19996;-63
2021/09/13 14:03:26;;;;;;;;;;;43.10;33.60;;;;;;8295384;28;19914;-63
2021/09/13 14:07:27;;;;;;;;;;;44.40;32.60;;;;;;8326995;28;20020;-64
2021/09/13 14:11:27;;;;;;;;;;;45.30;31.70;;;;;;8331091;28;19912;-63
2021/09/13 14:15:28;;;;;;;;;;;46.90;29.80;;;;;;8317696;28;19909;-63
2021/09/13 14:19:28;;;;;;;;;;;46.50;29.10;;;;;;8312783;28;19920;-63
2021/09/13 14:23:29;;;;;;;;;;;43.50;31.50;;;;;;8314206;28;19913;-63
2021/09/13 14:27:29;;;;;;;;;;;41.00;34.40;;;;;;8313829;28;19913;-63
2021/09/13 14:31:30;;;;;;;;;;;42.00;34.80;;;;;;8315294;28;20516;-64
2021/09/13 14:35:31;;;;;;;;;;;42.20;34.30;;;;;;8319918;28;21351;-63
2021/09/13 14:39:32;;;;;;;;;;;42.70;32.50;;;;;;8310585;28;19909;-63
2021/09/13 14:43:32;;;;;;;;;;;41.60;32.40;;;;;;8305821;28;19949;-63
2021/09/13 14:47:32;;;;;;;;;;;40.70;34.50;;;;;;8326324;28;19920;-64
2021/09/13 14:51:33;;;;;;;;;;;40.20;36.70;;;;;;8298821;28;19914;-63
2021/09/13 14:55:33;;;;;;;;;;;41.90;33.00;;;;;;8303662;28;19912;-63
2021/09/13 14:59:34;;;;;;;;;;;41.80;32.70;;;;;;8329176;28;19928;-63
2021/09/13 15:03:34;;;;;;;;;;;41.40;34.30;;;;;;8301217;28;19945;-63
2021/09/13 15:07:35;;;;;;;;;;;41.10;33.40;;;;;;8307694;28;19949;-63
2021/09/13 15:11:37;;;;;;;;;;;40.70;34.80;;;;;;8309009;28;19909;-63
2021/09/13 15:15:38;;;;;;;;;;;40.10;37.30;;;;;;8308897;28;19931;-63
2021/09/13 15:19:38;;;;;;;;;;;38.40;37.80;;;;;;8306970;28;19908;-63
2021/09/13 15:23:39;;;;;;;;;;;37.00;38.70;;;;;;8291258;28;20477;-64
2021/09/13 15:27:39;;;;;;;;;;;36.70;38.90;;;;;;8308793;28;19913;-63
2021/09/13 15:31:40;;;;;;;;;;;36.00;40.40;;;;;;8321302;28;20000;-63
2021/09/13 15:35:41;;;;;;;;;;;36.50;40.80;;;;;;8316212;28;19912;-64
2021/09/13 15:39:41;;;;;;;;;;;34.90;45.30;;;;;;8306086;28;19916;-64
2021/09/13 15:43:42;;;;;;;;;;;33.80;46.60;;;;;;8292160;28;20349;-65
2021/09/13 15:47:43;;;;;;;;;;;33.80;46.90;;;;;;8308461;28;19909;-65
2021/09/13 15:51:43;;;;;;;;;;;33.70;46.40;;;;;;8312544;28;19962;-65
2021/09/13 15:55:44;;;;;;;;;;;32.70;50.30;;;;;;8314276;28;19967;-64
2021/09/13 15:59:44;;;;;;;;;;;32.40;49.50;;;;;;8300766;28;19948;-64
2021/09/13 16:03:45;;;;;;;;;;;31.60;52.20;;;;;;8324244;28;19967;-64
2021/09/13 16:07:46;;;;;;;;;;;31.30;54.10;;;;;;8311340;28;19921;-64
2021/09/13 16:11:46;;;;;;;;;;;31.30;53.30;;;;;;8310446;28;19908;-65
2021/09/13 16:15:47;;;;;;;;;;;32.10;51.30;;;;;;8307327;28;19910;-64
2021/09/13 16:19:47;;;;;;;;;;;32.80;49.60;;;;;;8298545;28;20609;-64
2021/09/13 16:23:48;;;;;;;;;;;32.60;51.70;;;;;;8310494;28;20503;-64
2021/09/13 16:27:49;;;;;;;;;;;32.60;52.30;;;;;;8302056;28;19917;-64
2021/09/13 16:31:50;;;;;;;;;;;32.40;50.10;;;;;;8305400;28;20126;-64
2021/09/13 16:35:50;;;;;;;;;;;31.50;53.40;;;;;;8297101;28;19924;-64
2021/09/13 16:39:51;;;;;;;;;;;30.90;56.10;;;;;;8322185;28;20043;-64
2021/09/13 16:43:51;;;;;;;;;;;29.90;61.60;;;;;;8327135;28;20377;-64
2021/09/13 16:47:52;;;;;;;;;;;29.00;65.00;;;;;;8309126;28;20007;-64
2021/09/13 16:51:52;;;;;;;;;;;27.80;68.40;;;;;;8326825;28;19905;-64
2021/09/13 16:55:53;;;;;;;;;;;26.70;74.50;;;;;;8295767;28;19923;-64
2021/09/13 16:59:53;;;;;;;;;;;25.70;79.80;;;;;;8301803;28;19913;-64
2021/09/13 17:03:54;;;;;;;;;;;24.90;87.70;;;;;;8303458;28;19921;-64
2021/09/13 17:07:54;;;;;;;;;;;24.50;90.90;;;;;;8309181;28;19966;-64
2021/09/13 17:11:55;;;;;;;;;;;24.10;94.40;;;;;;8281983;28;21131;-64
2021/09/13 17:15:55;;;;;;;;;;;23.60;99.90;;;;;;8316217;28;19916;-64
2021/09/13 17:19:56;;;;;;;;;;;23.10;99.90;;;;;;8281184;28;20353;-64
2021/09/13 17:23:58;;;;;;;;;;;22.70;99.90;;;;;;8293473;28;19913;-64
2021/09/13 17:27:58;;;;;;;;;;;22.50;99.90;;;;;;8302270;28;19917;-64
2021/09/13 17:31:59;;;;;;;;;;;22.10;99.90;;;;;;8293995;28;20024;-64
2021/09/13 17:35:59;;;;;;;;;;;21.80;99.90;;;;;;8288111;28;20047;-64
2021/09/13 17:40:00;;;;;;;;;;;21.40;99.90;;;;;;8274626;28;20641;-64
2021/09/13 17:44:01;;;;;;;;;;;21.10;99.90;;;;;;8301065;28;20404;-64
2021/09/13 17:48:01;;;;;;;;;;;20.90;99.90;;;;;;8284395;28;19988;-64
2021/09/13 17:52:02;;;;;;;;;;;20.60;99.90;;;;;;8305727;28;20403;-64
2021/09/13 17:56:02;;;;;;;;;;;20.50;99.90;;;;;;8282497;28;19913;-64
2021/09/13 18:00:04;;;;;;;;;;;20.30;99.90;;;;;;8300385;28;20320;-64
2021/09/13 18:04:04;;;;;;;;;;;20.10;99.90;;;;;;8321825;28;19952;-63
2021/09/13 18:08:05;;;;;;;;;;;20.00;99.90;;;;;;8309444;28;19914;-64
2021/09/13 18:12:05;;;;;;;;;;;19.90;99.90;;;;;;8297054;28;19906;-64
2021/09/13 18:16:06;;;;;;;;;;;19.60;99.90;;;;;;8298165;28;19983;-64
2021/09/13 18:20:07;;;;;;;;;;;19.70;99.90;;;;;;8299645;28;19988;-64
2021/09/13 18:24:07;;;;;;;;;;;19.50;99.90;;;;;;8299792;28;19948;-64
2021/09/13 18:28:08;;;;;;;;;;;19.00;99.90;;;;;;8289432;28;19964;-64
2021/09/13 18:32:09;;;;;;;;;;;18.70;99.90;;;;;;8292833;28;20392;-64
2021/09/13 18:36:09;;;;;;;;;;;18.50;99.90;;;;;;8293772;28;19924;-64
2021/09/13 18:40:10;;;;;;;;;;;18.30;99.90;;;;;;8306654;28;19912;-64
2021/09/13 18:44:11;;;;;;;;;;;18.40;99.90;;;;;;8289818;28;19921;-64
2021/09/13 18:48:11;;;;;;;;;;;18.20;99.90;;;;;;8308284;28;19916;-64
2021/09/13 18:52:12;;;;;;;;;;;17.90;99.90;;;;;;8306833;28;19909;-64
2021/09/13 18:56:13;;;;;;;;;;;18.00;99.90;;;;;;8305459;28;19914;-64
2021/09/13 19:00:14;;;;;;;;;;;17.60;99.90;;;;;;8313421;28;19913;-64
2021/09/13 19:04:14;;;;;;;;;;;17.50;99.90;;;;;;8319911;28;19921;-64
2021/09/13 19:08:15;;;;;;;;;;;17.50;99.90;;;;;;8305432;28;19912;-64
2021/09/13 19:12:15;;;;;;;;;;;17.40;99.90;;;;;;8307519;28;19912;-64
2021/09/13 19:16:18;;;;;;;;;;;17.40;99.90;;;;;;8305088;28;20020;-64
2021/09/13 19:20:20;;;;;;;;;;;17.00;99.90;;;;;;8312229;28;19913;-64
2021/09/13 19:24:21;;;;;;;;;;;16.90;99.90;;;;;;8300976;28;19921;-64
2021/09/13 19:28:21;;;;;;;;;;;17.00;99.90;;;;;;8297715;28;19996;-64
2021/09/13 19:32:22;;;;;;;;;;;17.10;99.90;;;;;;8295973;28;19996;-64
2021/09/13 19:36:23;;;;;;;;;;;16.70;99.90;;;;;;8293925;28;20339;-64
2021/09/13 19:40:23;;;;;;;;;;;16.40;99.90;;;;;;8277714;28;19913;-64
2021/09/13 19:44:24;;;;;;;;;;;16.50;99.90;;;;;;8295036;28;20305;-64
2021/09/13 19:48:24;;;;;;;;;;;16.30;99.90;;;;;;8304914;28;19963;-64
2021/09/13 19:52:25;;;;;;;;;;;16.20;99.90;;;;;;8304823;28;19963;-64
2021/09/13 19:56:25;;;;;;;;;;;16.10;99.90;;;;;;8301149;28;19920;-64
2021/09/13 20:00:26;;;;;;;;;;;16.10;99.90;;;;;;8322701;28;19908;-63
2021/09/13 20:04:27;;;;;;;;;;;15.90;99.90;;;;;;8317599;28;19917;-64
2021/09/13 20:08:27;;;;;;;;;;;16.40;99.90;;;;;;8296709;28;20008;-63
2021/09/13 20:12:28;;;;;;;;;;;16.40;99.90;;;;;;8305863;28;19916;-64
2021/09/13 20:16:28;;;;;;;;;;;16.10;99.90;;;;;;8304246;28;19937;-63
2021/09/13 20:20:29;;;;;;;;;;;15.90;99.90;;;;;;8304097;28;19913;-63
2021/09/13 20:24:30;;;;;;;;;;;16.20;99.90;;;;;;8306663;28;19917;-63
2021/09/13 20:28:30;;;;;;;;;;;15.90;99.90;;;;;;8305779;28;19917;-63
2021/09/13 20:32:31;;;;;;;;;;;15.60;99.90;;;;;;8299244;28;20341;-64
2021/09/13 20:36:31;;;;;;;;;;;15.70;99.90;;;;;;8308270;28;19913;-63
2021/09/13 20:40:32;;;;;;;;;;;15.90;99.90;;;;;;8292250;28;19909;-63
2021/09/13 20:44:32;;;;;;;;;;;15.60;99.90;;;;;;8303999;28;19917;-64
2021/09/13 20:48:33;;;;;;;;;;;15.30;99.90;;;;;;8291787;28;19912;-64
2021/09/13 20:52:33;;;;;;;;;;;15.50;99.90;;;;;;8275947;28;19955;-64
2021/09/13 20:56:34;;;;;;;;;;;15.20;99.90;;;;;;8293150;28;19916;-64
2021/09/13 21:00:34;;;;;;;;;;;15.00;99.90;;;;;;8276391;28;19905;-63
2021/09/13 21:04:35;;;;;;;;;;;15.10;99.90;;;;;;8276229;28;19910;-63
2021/09/13 21:08:36;;;;;;;;;;;15.10;99.90;;;;;;8276557;28;19944;-63
2021/09/13 21:12:36;;;;;;;;;;;15.40;99.90;;;;;;8293943;28;19905;-63
2021/09/13 21:16:37;;;;;;;;;;;15.20;99.90;;;;;;8292976;28;19905;-64
2021/09/13 21:20:37;;;;;;;;;;;15.20;99.90;;;;;;8276504;28;19979;-64
2021/09/13 21:24:37;;;;;;;;;;;14.90;99.90;;;;;;8275959;28;20365;-63
2021/09/13 21:28:38;;;;;;;;;;;14.90;99.90;;;;;;8293763;28;20365;-63
2021/09/13 21:32:38;;;;;;;;;;;14.90;99.90;;;;;;8293360;28;19928;-64
2021/09/13 21:36:39;;;;;;;;;;;15.00;99.90;;;;;;8293464;28;19937;-63
2021/09/13 21:40:39;;;;;;;;;;;15.00;99.90;;;;;;8293706;28;19909;-64
2021/09/13 21:44:40;;;;;;;;;;;14.60;99.90;;;;;;8293199;28;20350;-64
2021/09/13 21:48:40;;;;;;;;;;;14.70;99.90;;;;;;8292323;28;19906;-64
2021/09/13 21:52:41;;;;;;;;;;;14.80;99.90;;;;;;8293131;28;19912;-63
2021/09/13 21:56:41;;;;;;;;;;;14.80;99.90;;;;;;8275458;28;19905;-63
2021/09/13 22:00:42;;;;;;;;;;;14.50;99.90;;;;;;8293393;28;19974;-64
2021/09/13 22:04:42;;;;;;;;;;;14.70;99.90;;;;;;8275466;28;20314;-63
2021/09/13 22:08:43;;;;;;;;;;;14.50;99.90;;;;;;8293162;28;20037;-63
2021/09/13 22:12:43;;;;;;;;;;;14.50;99.90;;;;;;8293019;28;19916;-63
2021/09/13 22:16:44;;;;;;;;;;;14.40;99.90;;;;;;8292699;28;19909;-63
2021/09/13 22:20:44;;;;;;;;;;;14.40;99.90;;;;;;8293023;28;20349;-63
2021/09/13 22:24:45;;;;;;;;;;;14.30;99.90;;;;;;8275015;28;19940;-63
2021/09/13 22:28:45;;;;;;;;;;;14.20;99.90;;;;;;8293512;28;19952;-64
2021/09/13 22:32:46;;;;;;;;;;;14.20;99.90;;;;;;8298681;28;19960;-64
2021/09/13 22:36:46;;;;;;;;;;;14.00;99.90;;;;;;8280977;28;20288;-63
2021/09/13 22:40:46;;;;;;;;;;;13.90;99.90;;;;;;8298705;28;19909;-64
2021/09/13 22:44:47;;;;;;;;;;;14.00;99.90;;;;;;8298235;28;20615;-63
2021/09/13 22:48:47;;;;;;;;;;;14.20;99.90;;;;;;8297729;28;20023;-63
2021/09/13 22:52:48;;;;;;;;;;;14.20;99.90;;;;;;8298105;28;19905;-63
2021/09/13 22:56:48;;;;;;;;;;;13.90;99.90;;;;;;8298035;28;20395;-64
2021/09/13 23:00:49;;;;;;;;;;;13.60;99.90;;;;;;8298507;28;20305;-64
2021/09/13 23:04:49;;;;;;;;;;;14.00;99.90;;;;;;8297769;28;19952;-63
2021/09/13 23:08:50;;;;;;;;;;;14.00;99.90;;;;;;8280217;28;19909;-64
2021/09/13 23:12:50;;;;;;;;;;;13.80;99.90;;;;;;8297396;28;19906;-63
2021/09/13 23:16:51;;;;;;;;;;;13.60;99.90;;;;;;8297139;28;20019;-64
2021/09/13 23:20:51;;;;;;;;;;;13.50;99.90;;;;;;8297446;28;19927;-64
2021/09/13 23:24:51;;;;;;;;;;;13.50;99.90;;;;;;8296788;28;20385;-63
2021/09/13 23:28:52;;;;;;;;;;;13.40;99.90;;;;;;8297040;28;19940;-63
2021/09/13 23:32:52;;;;;;;;;;;13.40;99.90;;;;;;8296680;28;20000;-63